Greeneville, Tennessee
Current Conditions -  °F | °C
As of 6:15 PM on Friday 28 Nov 2014 (Local Time) from KMOR Reporting Station
Clear Clear  
Wind Chill: 34°   Ceiling: Unl
Heat Index: 34°   Visibility: 10mi
Dew Point: 19°   Wind: 0mph
Humidity: 56%   Direction: NA
Pressure: 30.27"   Gusts: NA
Location:  36.16°N, 82.83°W
Report Text: KMOR 282315Z AUTO 00000KT 10SM CLR 01/M07 A3027 RMK
Loading
Personal Weather Stations






























Interactive Weather Map New forecast layout! Learn more

10-Day Weather Forecast

Advertisements
Track Severe Weather on mobile